Inspiration — C6FM5 — position and weather

sailwx.info

Track history (hours):
 
Tides and Currents Weather Stations Pressure Air Temp Water Temp Dewpoint Dewpoint Depression Visibility Wind Speed Wind Dir Waves Ship Positions

Inspiration

Operator: Carnival Cruise Lines

Last reported at 2019-Aug-22 10:00 UTC. Time now 2019-Aug-22 10:07 UTC.
Position N 31°28' W 118°09'.

Type: Ship. MMSI: 309484000.

Date/timePositionNaut miles runAvg speedWind from/ knotsBaromVisibWave heightAir tempDewpointWater temp
2019-Aug-22 10:00N 31°28' W 118°09'4 7.9
2019-Aug-22 09:31N 31°26' W 118°05'4 8.0
2019-Aug-22 09:01N 31°24' W 118°01'4 8.2
2019-Aug-22 08:30N 31°22' W 117°57'4 8.6
2019-Aug-22 08:00N 31°23' W 117°52'4268.3
2019-Aug-22 08:00N 31°24' W 117°48'1 2.4 320 / 151013.210.8 18.014.820.0
2019-Aug-22 07:30N 31°25' W 117°47'5 9.7
2019-Aug-22 07:00N 31°26' W 117°42'610.6
2019-Aug-22 06:26N 31°29' W 117°35'510.7
2019-Aug-22 06:00N 31°31' W 117°30'510.8
2019-Aug-22 05:31N 31°33' W 117°24'510.7
2019-Aug-22 05:01N 31°35' W 117°19'510.8
2019-Aug-22 04:30N 31°37' W 117°13'611.1
2019-Aug-22 04:00N 31°39' W 117°07'611.3
2019-Aug-22 03:31N 31°42' W 117°01'611.3
2019-Aug-22 03:00N 31°43' W 116°54'611.1
2019-Aug-22 02:30N 31°46' W 116°49'711.0
2019-Aug-22 01:53N 31°49' W 116°41'9 0.7
2019-Aug-21 12:43N 31°54' W 116°50'2 9.8
2019-Aug-21 12:30N 31°55' W 116°52'4 8.6
2019-Aug-21 12:00N 31°56' W 116°57'5 9.6
2019-Aug-21 11:30N 31°58' W 117°02'510.0
2019-Aug-21 11:00N 31°60' W 117°07'5 9.7
2019-Aug-21 10:30N 32°02' W 117°13'5 9.6
2019-Aug-21 10:00N 32°04' W 117°18'5 9.7
2019-Aug-21 09:30N 32°06' W 117°23'5 9.7
2019-Aug-21 09:00N 32°07' W 117°28'5 9.7
2019-Aug-21 08:30N 32°10' W 117°33'5 9.8
2019-Aug-21 08:00N 32°14' W 117°36'5 9.9
2019-Aug-21 07:30N 32°19' W 117°39'510.2
2019-Aug-21 07:01N 32°23' W 117°41'7407.4
2019-Aug-21 07:00N 32°18' W 117°36'1224.4 320 / 101016.210.8 18.014.819.0
2019-Aug-21 06:30N 32°28' W 117°44'510.4
2019-Aug-21 06:01N 32°32' W 117°47'510.4
2019-Aug-21 05:31N 32°37' W 117°50'510.2
2019-Aug-21 05:01N 32°42' W 117°52'510.2
2019-Aug-21 04:31N 32°46' W 117°55'510.1
2019-Aug-21 04:01N 32°51' W 117°58'510.2
2019-Aug-21 03:31N 32°55' W 118°00'5 9.8
2019-Aug-21 03:00N 32°60' W 118°03'5 9.9
2019-Aug-21 02:30N 33°04' W 118°06'510.0
2019-Aug-21 02:00N 33°09' W 118°08'4 8.8
2019-Aug-21 01:31N 33°12' W 118°11'3 6.0
2019-Aug-21 01:00N 33°15' W 118°12'573529.8
2019-Aug-21 01:00N 34°12' W 118°12'54111.9 300 / 101015.210.8 23.020.121.0
2019-Aug-21 00:30N 33°18' W 118°14'3 6.6
2019-Aug-21 00:00N 33°20' W 118°17'2 3.4
2019-Aug-20 23:28N 33°21' W 118°19'0 0.0
2019-Aug-20 22:58N 33°21' W 118°19'0 0.0
2019-Aug-20 22:25N 33°21' W 118°19'0 0.1
2019-Aug-20 21:58N 33°21' W 118°19'0 0.0
2019-Aug-20 21:28N 33°21' W 118°19'0 0.0
2019-Aug-20 20:58N 33°21' W 118°19'0 0.0
2019-Aug-20 20:25N 33°21' W 118°19'0 0.1
2019-Aug-20 19:55N 33°21' W 118°19'0 0.0
2019-Aug-20 19:28N 33°21' W 118°19'0 0.0
2019-Aug-20 18:58N 33°21' W 118°19'0 0.0
2019-Aug-20 18:22N 33°21' W 118°19'0 0.0
2019-Aug-20 17:58N 33°21' W 118°19'0 0.0
2019-Aug-20 17:28N 33°21' W 118°19'0 0.0
2019-Aug-20 17:00N 33°21' W 118°19'0 0.0
2019-Aug-20 16:30N 33°21' W 118°19'0 0.0
2019-Aug-20 16:00N 33°21' W 118°19'0 0.1
2019-Aug-20 15:30N 33°21' W 118°19'0 0.0
2019-Aug-20 14:47N 33°21' W 118°19'0 0.0
2019-Aug-20 14:30N 33°21' W 118°19'0 0.1
2019-Aug-20 14:00N 33°21' W 118°19'3 5.7
2019-Aug-20 13:31N 33°19' W 118°17'4 8.1
2019-Aug-20 13:00N 33°15' W 118°15'4 7.6
2019-Aug-20 12:30N 33°11' W 118°14'4 7.9
2019-Aug-20 12:01N 33°07' W 118°13'7449.8
2019-Aug-20 12:00N 33°00' W 118°12'4 7.6 270 / 201017.210.8 18.014.820.0
2019-Aug-20 11:31N 33°04' W 118°12'4 8.1
2019-Aug-20 11:00N 33°01' W 118°08'4 8.0
2019-Aug-20 10:31N 32°58' W 118°05'4 8.5
2019-Aug-20 10:00N 32°54' W 118°03'4 8.6
2019-Aug-20 09:30N 32°50' W 118°02'5 9.2
2019-Aug-20 09:00N 32°46' W 117°60'4 8.9
2019-Aug-20 08:30N 32°45' W 117°55'4 8.2
2019-Aug-20 08:00N 32°49' W 117°53'187.5
2019-Aug-20 08:00N 32°48' W 117°54'510.0 270 / 101017.210.8 18.014.819.0
2019-Aug-20 07:30N 32°53' W 117°54'4 8.4
2019-Aug-20 07:00N 32°57' W 117°56'4 8.8
2019-Aug-20 06:31N 33°01' W 117°58'5 8.8
2019-Aug-20 05:54N 33°06' W 118°00'3 8.6
2019-Aug-20 05:30N 33°09' W 118°01'4 8.4
2019-Aug-20 05:00N 33°13' W 118°03'4 8.5
2019-Aug-20 04:30N 33°17' W 118°05'5 9.2
2019-Aug-20 04:00N 33°21' W 118°07'5 9.6
2019-Aug-20 03:30N 33°26' W 118°09'5 9.7
2019-Aug-20 03:00N 33°30' W 118°11'5 9.9
2019-Aug-20 02:30N 33°35' W 118°13'5 9.4
2019-Aug-20 02:01N 33°40' W 118°12'4 8.8
2019-Aug-20 01:30N 33°44' W 118°11'1 2.2
2019-Aug-20 00:59N 33°45' W 118°11'0 0.0
2019-Aug-20 00:29N 33°45' W 118°11'0 0.0
2019-Aug-19 23:59N 33°45' W 118°11'0 0.0
2019-Aug-19 23:29N 33°45' W 118°11'0 0.0
2019-Aug-19 22:56N 33°45' W 118°11'0 0.0
2019-Aug-19 22:29N 33°45' W 118°11'0 0.0
2019-Aug-19 21:59N 33°45' W 118°11'0 0.0
2019-Aug-19 21:29N 33°45' W 118°11'0 0.0
2019-Aug-19 20:59N 33°45' W 118°11'0 0.0
2019-Aug-19 20:26N 33°45' W 118°11'0 0.0
2019-Aug-19 19:59N 33°45' W 118°11'0 0.0
2019-Aug-19 19:29N 33°45' W 118°11'0 0.0
2019-Aug-19 18:59N 33°45' W 118°11'0 0.0
2019-Aug-19 18:29N 33°45' W 118°11'0 0.0
2019-Aug-19 17:59N 33°45' W 118°11'0 0.0
2019-Aug-19 17:29N 33°45' W 118°11'0 0.0
2019-Aug-19 16:59N 33°45' W 118°11'0 0.0
2019-Aug-19 16:29N 33°45' W 118°11'0 0.0
2019-Aug-19 15:59N 33°45' W 118°11'0 0.0
2019-Aug-19 15:23N 33°45' W 118°11'0 0.0
2019-Aug-19 14:59N 33°45' W 118°11'0 0.0
2019-Aug-19 14:29N 33°45' W 118°11'0 0.0
2019-Aug-19 13:59N 33°45' W 118°11'0 0.0
2019-Aug-19 13:26N 33°45' W 118°11'0 0.0
2019-Aug-19 12:59N 33°45' W 118°11'0 0.7
2019-Aug-19 12:30N 33°45' W 118°11'2 4.6
2019-Aug-19 12:00N 33°43' W 118°11'4 8.8
2019-Aug-19 11:30N 33°38' W 118°10'5 9.2
2019-Aug-19 11:00N 33°34' W 118°08'5 9.5
2019-Aug-19 10:30N 33°29' W 118°07'5 9.4
2019-Aug-19 09:59N 33°25' W 118°05'611.0
2019-Aug-19 09:29N 33°19' W 118°03'510.6
2019-Aug-19 09:00N 33°15' W 118°01'611.7
2019-Aug-19 08:30N 33°09' W 117°58'611.7
2019-Aug-19 08:00N 33°04' W 117°56'611.2
2019-Aug-19 07:30N 32°58' W 117°54'816.4
2019-Aug-19 07:00N 32°50' W 117°52'5297.5
2019-Aug-19 07:00N 32°54' W 117°48'1225.5 270 / 101017.210.8 18.014.819.0
2019-Aug-19 06:30N 32°42' W 117°49'918.3
2019-Aug-19 06:01N 32°34' W 117°43'917.9
2019-Aug-19 05:30N 32°26' W 117°39'917.6
2019-Aug-19 05:00N 32°18' W 117°34'918.1
2019-Aug-19 04:30N 32°11' W 117°27'917.0
2019-Aug-19 03:59N 32°06' W 117°19'816.5
2019-Aug-19 03:30N 32°01' W 117°11'1415.8
2019-Aug-19 02:36N 31°56' W 116°55'415.3
2019-Aug-19 02:19N 31°54' W 116°51'8 0.6
2019-Aug-18 11:36N 31°50' W 116°59'1 6.6
2019-Aug-18 11:29N 31°50' W 117°00'4 8.0
2019-Aug-18 11:00N 31°49' W 117°05'6 7.9
2019-Aug-18 10:14N 31°44' W 117°08'5 8.3
2019-Aug-18 09:39N 31°39' W 117°09'2 8.2
2019-Aug-18 09:22N 31°37' W 117°10'7 3.1
2019-Aug-18 07:00N 31°30' W 117°06'713.6 320 / 81016.210.8 18.014.820.0
2019-Aug-18 06:27N 31°37' W 117°04'10 7.5
2019-Aug-18 05:04N 31°45' W 117°12'1 7.8
2019-Aug-18 04:59N 31°46' W 117°12'13 8.2
2019-Aug-18 03:26N 31°55' W 117°22'3 8.0
2019-Aug-18 03:00N 31°53' W 117°26'7650.2
2019-Aug-18 03:00N 31°54' W 117°18'813.8 300 / 101015.210.8 18.014.819.0
2019-Aug-18 02:24N 31°48' W 117°25'5 7.6
2019-Aug-18 01:43N 31°43' W 117°23'2 7.4
2019-Aug-18 01:30N 31°42' W 117°23'14 8.3
2019-Aug-17 23:51N 31°28' W 117°21'2 6.7
2019-Aug-17 23:30N 31°27' W 117°23'4 7.1
2019-Aug-17 22:57N 31°29' W 117°26'3 7.0
2019-Aug-17 22:30N 31°32' W 117°29'4 6.9
2019-Aug-17 21:58N 31°34' W 117°32'3 6.9
2019-Aug-17 21:29N 31°36' W 117°35'4 6.9
2019-Aug-17 20:55N 31°39' W 117°39'4 6.7
2019-Aug-17 20:24N 31°41' W 117°42'718.3
2019-Aug-17 20:00N 31°36' W 117°48'542.4 1017.210.8 22.019.019.0
2019-Aug-17 19:52N 31°41' W 117°46'3 7.0
2019-Aug-17 19:30N 31°41' W 117°49'4 7.6
2019-Aug-17 19:00N 31°41' W 117°53'4 7.9
2019-Aug-17 18:30N 31°42' W 117°58'7 7.5
2019-Aug-17 17:30N 31°47' W 118°05'4 7.1
2019-Aug-17 17:00N 31°50' W 118°07'4 7.2
2019-Aug-17 16:30N 31°53' W 118°07'4 7.2
2019-Aug-17 16:00N 31°57' W 118°06'4 7.1
2019-Aug-17 15:30N 32°00' W 118°05'4 7.5
2019-Aug-17 15:00N 32°04' W 118°03'4273.6
2019-Aug-17 15:00N 32°00' W 118°00'715.0 270 / 51017.210.8 18.014.821.0
2019-Aug-17 14:30N 32°07' W 118°01'4 7.7
2019-Aug-17 14:00N 32°11' W 117°60'4 7.4
2019-Aug-17 13:30N 32°14' W 117°58'4 7.2
2019-Aug-17 13:00N 32°18' W 117°56'2129.1
2019-Aug-17 13:00N 32°18' W 117°54'3 6.4 200 / 61016.2 18.014.820.0
2019-Aug-17 12:30N 32°21' W 117°55'4 7.4
2019-Aug-17 12:00N 32°24' W 117°53'4 7.6
2019-Aug-17 11:30N 32°28' W 117°51'5 9.2
2019-Aug-17 11:00N 32°32' W 117°49'5 9.0
2019-Aug-17 10:30N 32°36' W 117°47'4 7.7
2019-Aug-17 10:00N 32°40' W 117°48'4 8.0
2019-Aug-17 09:30N 32°44' W 117°50'4 7.9
2019-Aug-17 09:00N 32°48' W 117°52'4 7.8
2019-Aug-17 08:30N 32°51' W 117°53'4 8.0
2019-Aug-17 08:00N 32°55' W 117°55'4 8.2
2019-Aug-17 07:30N 32°59' W 117°57'4 8.0
2019-Aug-17 07:00N 33°03' W 117°58'9585.1
2019-Aug-17 07:00N 32°54' W 117°54'1327.3 1016.210.8 18.014.820.0
2019-Aug-17 06:30N 33°06' W 118°00'4 7.9
2019-Aug-17 06:00N 33°10' W 118°02'4 7.8
2019-Aug-17 05:30N 33°14' W 118°03'4 7.6
2019-Aug-17 05:01N 33°17' W 118°05'4 7.5
2019-Aug-17 04:30N 33°21' W 118°07'4 7.5
2019-Aug-17 04:00N 33°24' W 118°08'2112.3
2019-Aug-17 04:00N 33°24' W 118°06'5 9.9 270 / 151016.210.8 19.017.519.0
2019-Aug-17 03:30N 33°28' W 118°10'4 8.1
2019-Aug-17 03:00N 33°31' W 118°11'510.0
2019-Aug-17 02:30N 33°36' W 118°13'5 9.4
2019-Aug-17 02:00N 33°41' W 118°12'4 8.0
2019-Aug-17 01:30N 33°45' W 118°11'0 0.7
2019-Aug-17 01:00N 33°45' W 118°11'0 0.0
2019-Aug-17 00:30N 33°45' W 118°11'0 0.0
2019-Aug-17 00:00N 33°45' W 118°11'0 0.0
2019-Aug-16 23:30N 33°45' W 118°11'0 0.0
2019-Aug-16 23:00N 33°45' W 118°11'0 0.0
2019-Aug-16 22:30N 33°45' W 118°11'0 0.0
2019-Aug-16 22:00N 33°45' W 118°11'0 0.0
2019-Aug-16 21:30N 33°45' W 118°11'0 0.0
2019-Aug-16 21:00N 33°45' W 118°11'0 0.0
2019-Aug-16 20:30N 33°45' W 118°11'0 0.0
2019-Aug-16 20:00N 33°45' W 118°11'0 0.0
2019-Aug-16 19:21N 33°45' W 118°11'0 0.0
2019-Aug-16 19:00N 33°45' W 118°11'0 0.0
2019-Aug-16 18:30N 33°45' W 118°11'0 0.0
2019-Aug-16 18:00N 33°45' W 118°11'0 0.0
2019-Aug-16 17:30N 33°45' W 118°11'0 0.0
2019-Aug-16 17:00N 33°45' W 118°11'0 0.0
2019-Aug-16 16:30N 33°45' W 118°11'0 0.0
2019-Aug-16 16:00N 33°45' W 118°11'0 0.0
2019-Aug-16 15:30N 33°45' W 118°11'0 0.0
2019-Aug-16 15:00N 33°45' W 118°11'0 0.0
2019-Aug-16 14:27N 33°45' W 118°11'0 0.0
2019-Aug-16 14:00N 33°45' W 118°11'0 0.0
2019-Aug-16 13:30N 33°45' W 118°11'0 0.0
2019-Aug-16 13:00N 33°45' W 118°11'0 0.7
2019-Aug-16 12:30N 33°45' W 118°11'2 4.4
2019-Aug-16 12:00N 33°43' W 118°11'4 7.3
2019-Aug-16 11:30N 33°39' W 118°10'4 7.8
2019-Aug-16 11:00N 33°35' W 118°09'4 7.7
2019-Aug-16 10:30N 33°32' W 118°08'4 7.2
2019-Aug-16 10:00N 33°28' W 118°06'4 7.3
2019-Aug-16 09:30N 33°25' W 118°05'4 7.5
2019-Aug-16 09:00N 33°21' W 118°04'4 7.5
2019-Aug-16 08:30N 33°18' W 118°02'4 7.2
2019-Aug-16 08:00N 33°14' W 118°01'4 7.8
2019-Aug-16 07:30N 33°11' W 117°59'4 7.5
2019-Aug-16 07:00N 33°07' W 117°58'4 7.4
2019-Aug-16 06:30N 33°04' W 117°56'4 7.2
2019-Aug-16 06:00N 33°00' W 117°54'4 7.6
2019-Aug-16 05:30N 32°57' W 117°53'4 8.4
2019-Aug-16 05:00N 32°53' W 117°52'4 8.0
2019-Aug-16 04:30N 32°49' W 117°50'4 7.4
2019-Aug-16 04:00N 32°46' W 117°48'4 7.5
2019-Aug-16 03:30N 32°42' W 117°47'4 7.9
2019-Aug-16 03:00N 32°38' W 117°45'4 8.0
2019-Aug-16 02:30N 32°34' W 117°44'4 8.1
2019-Aug-16 02:00N 32°30' W 117°43'162.8
2019-Aug-16 02:00N 32°30' W 117°42'3 7.1 320 / 101016.210.8 19.017.521.0
2019-Aug-16 01:30N 32°27' W 117°42'4 7.5
2019-Aug-16 01:00N 32°23' W 117°39'4 7.8
2019-Aug-16 00:30N 32°20' W 117°38'4 7.5
2019-Aug-16 00:00N 32°16' W 117°36'4 7.4
2019-Aug-15 23:30N 32°14' W 117°33'4 7.2
2019-Aug-15 23:00N 32°12' W 117°30'4 7.6
2019-Aug-15 22:30N 32°09' W 117°27'4 7.4
2019-Aug-15 22:00N 32°06' W 117°24'8481.3
2019-Aug-15 22:00N 32°00' W 117°18'4 7.9 320 / 181017.210.8 19.015.920.0
2019-Aug-15 21:30N 32°03' W 117°21'4 7.8
2019-Aug-15 21:00N 32°00' W 117°18'4 7.4
2019-Aug-15 20:30N 31°57' W 117°15'4 7.4
2019-Aug-15 20:00N 31°55' W 117°12'3 6.9
2019-Aug-15 19:30N 31°52' W 117°10'4 7.4
2019-Aug-15 19:00N 31°49' W 117°13'4 7.5
2019-Aug-15 18:30N 31°46' W 117°16'4 7.6
2019-Aug-15 18:00N 31°43' W 117°19'4 7.6
2019-Aug-15 17:30N 31°41' W 117°22'4 7.6
2019-Aug-15 17:00N 31°38' W 117°25'4 7.7
2019-Aug-15 16:30N 31°35' W 117°29'4 7.2
2019-Aug-15 16:00N 31°35' W 117°33'6462.1
2019-Aug-15 16:00N 31°30' W 117°30'918.5 300 / 151018.310.8 18.014.820.0
2019-Aug-15 15:30N 31°37' W 117°37'4 7.3
2019-Aug-15 15:00N 31°38' W 117°41'4 7.5
2019-Aug-15 14:30N 31°40' W 117°45'4 7.5
2019-Aug-15 14:00N 31°41' W 117°49'4 7.6
2019-Aug-15 13:30N 31°42' W 117°53'4 7.5
2019-Aug-15 13:00N 31°42' W 117°58'3190.9
2019-Aug-15 13:00N 31°42' W 117°54'714.0 330 / 201018.310.8 18.014.819.0
2019-Aug-15 12:30N 31°42' W 118°02'4 7.8
2019-Aug-15 12:00N 31°41' W 118°06'4 7.7
2019-Aug-15 11:30N 31°38' W 118°08'4 7.8
2019-Aug-15 11:00N 31°34' W 118°09'4 7.8
2019-Aug-15 10:30N 31°30' W 118°09'4 7.3
2019-Aug-15 10:00N 31°27' W 118°07'4 7.9
2019-Aug-15 09:30N 31°25' W 118°03'4 7.8
2019-Aug-15 09:00N 31°23' W 117°59'4 7.4
2019-Aug-15 08:30N 31°22' W 117°55'4 8.2
2019-Aug-15 08:00N 31°23' W 117°51'7461.1
2019-Aug-15 08:00N 31°24' W 117°42'4 7.3 320 / 251018.210.8 18.014.819.0
2019-Aug-15 07:30N 31°25' W 117°46'510.3
2019-Aug-15 07:00N 31°27' W 117°40'511.1
2019-Aug-15 06:30N 31°29' W 117°34'510.9
2019-Aug-15 06:00N 31°31' W 117°29'511.0
2019-Aug-15 05:30N 31°33' W 117°23'611.3
2019-Aug-15 05:00N 31°36' W 117°17'611.2
2019-Aug-15 04:30N 31°38' W 117°11'611.3
2019-Aug-15 04:00N 31°40' W 117°05'611.4
2019-Aug-15 03:30N 31°42' W 116°58'511.0
2019-Aug-15 03:00N 31°44' W 116°52'3184.2
2019-Aug-15 03:00N 31°42' W 116°54'816.4 340 / 151017.210.8 18.014.819.0
2019-Aug-15 02:30N 31°46' W 116°46'4 0.3
2019-Aug-14 13:22N 31°50' W 116°44'3 8.2
2019-Aug-14 13:00N 31°52' W 116°47'4 8.1
2019-Aug-14 12:30N 31°54' W 116°51'4 8.4
2019-Aug-14 12:00N 31°56' W 116°55'5 9.1
2019-Aug-14 11:30N 31°58' W 117°00'4 8.9
2019-Aug-14 11:01N 31°59' W 117°05'4 8.9
2019-Aug-14 10:30N 32°01' W 117°10'4 8.4
2019-Aug-14 10:00N 32°03' W 117°15'4 7.4
2019-Aug-14 09:31N 32°04' W 117°19'5 9.0
2019-Aug-14 09:00N 32°06' W 117°24'4 8.8
2019-Aug-14 08:30N 32°07' W 117°28'4 8.9
2019-Aug-14 08:00N 32°09' W 117°33'5 9.7
2019-Aug-14 07:30N 32°14' W 117°36'510.0
2019-Aug-14 07:00N 32°18' W 117°38'6440.7
2019-Aug-14 07:00N 32°12' W 117°36'1123.2 1018.210.8 18.014.821.0
2019-Aug-14 06:30N 32°22' W 117°41'5 9.7
2019-Aug-14 06:00N 32°27' W 117°43'5 9.7
2019-Aug-14 05:31N 32°31' W 117°46'5 9.7
2019-Aug-14 05:01N 32°35' W 117°49'5 9.9
2019-Aug-14 04:30N 32°40' W 117°51'5 9.9
2019-Aug-14 04:00N 32°44' W 117°54'5 9.7
2019-Aug-14 03:30N 32°49' W 117°56'5 9.7
2019-Aug-14 03:00N 32°53' W 117°59'7454.8
2019-Aug-14 03:00N 32°48' W 117°54'1123.3 300 / 101017.210.8 18.014.819.0
2019-Aug-14 02:30N 32°57' W 118°02'5 9.9
2019-Aug-14 02:00N 33°02' W 118°04'5 9.7
2019-Aug-14 01:30N 33°06' W 118°07'5 9.5
2019-Aug-14 01:00N 33°10' W 118°09'5 9.6
2019-Aug-14 00:30N 33°15' W 118°12'5 9.5
2019-Aug-14 00:00N 33°18' W 118°15'4 7.8
2019-Aug-13 23:30N 33°21' W 118°19'0 0.1
2019-Aug-13 23:00N 33°21' W 118°19'0 0.0
2019-Aug-13 22:30N 33°21' W 118°19'0 0.0
2019-Aug-13 22:00N 33°21' W 118°19'0 0.0
2019-Aug-13 21:21N 33°21' W 118°19'0 0.0
2019-Aug-13 20:48N 33°21' W 118°19'0 0.0
2019-Aug-13 20:30N 33°21' W 118°19'3 6.1
2019-Aug-13 20:00N 33°18' W 118°18'312.3 1019.310.8 23.020.122.0
2019-Aug-13 19:45N 33°21' W 118°19'0 0.0
2019-Aug-13 19:27N 33°21' W 118°19'0 0.1
2019-Aug-13 18:57N 33°21' W 118°19'0 0.1
2019-Aug-13 18:21N 33°21' W 118°19'0 0.0
2019-Aug-13 18:00N 33°21' W 118°19'0 0.1
2019-Aug-13 17:21N 33°21' W 118°19'0 0.0
2019-Aug-13 16:57N 33°21' W 118°19'0 0.0
2019-Aug-13 16:24N 33°21' W 118°19'0 0.0
2019-Aug-13 15:51N 33°21' W 118°19'0 0.0
2019-Aug-13 15:30N 33°21' W 118°19'0 0.0
2019-Aug-13 15:00N 33°21' W 118°19'0 0.0
2019-Aug-13 14:30N 33°21' W 118°19'0 0.1
2019-Aug-13 14:00N 33°21' W 118°19'3 6.2
2019-Aug-13 13:30N 33°19' W 118°16'4 8.2
2019-Aug-13 13:00N 33°15' W 118°15'4 8.2
2019-Aug-13 12:30N 33°11' W 118°14'4 7.5
2019-Aug-13 12:00N 33°07' W 118°13'4 7.5
2019-Aug-13 11:30N 33°04' W 118°11'4 7.8
2019-Aug-13 11:00N 33°01' W 118°08'4 7.6
2019-Aug-13 10:30N 32°58' W 118°05'4 8.0
2019-Aug-13 10:00N 32°54' W 118°03'4 8.8
2019-Aug-13 09:30N 32°50' W 118°02'5 9.6
2019-Aug-13 09:00N 32°46' W 117°60'5 9.4
2019-Aug-13 08:30N 32°45' W 117°54'4 8.5
2019-Aug-13 08:00N 32°49' W 117°52'5 9.1
2019-Aug-13 07:30N 32°53' W 117°54'5 9.2
2019-Aug-13 07:00N 32°57' W 117°56'9582.9
2019-Aug-13 07:00N 32°48' W 117°54'1428.4 050 / 21018.210.8 18.014.821.0
2019-Aug-13 06:30N 33°01' W 117°58'5 9.3
2019-Aug-13 06:00N 33°06' W 117°60'5 9.3
2019-Aug-13 05:30N 33°10' W 118°02'4 9.0
2019-Aug-13 05:00N 33°14' W 118°04'5 9.0
2019-Aug-13 04:30N 33°18' W 118°06'5 9.1
2019-Aug-13 04:00N 33°23' W 118°08'2122.1
2019-Aug-13 04:00N 33°24' W 118°06'4 8.9 350 / 51017.210.8 18.014.819.0
2019-Aug-13 03:30N 33°27' W 118°10'5 9.4
2019-Aug-13 03:00N 33°32' W 118°12'5 9.5
2019-Aug-13 02:30N 33°36' W 118°13'9 8.8
2019-Aug-13 01:30N 33°45' W 118°11'0 0.8
2019-Aug-13 00:59N 33°45' W 118°11'0 0.0
2019-Aug-13 00:29N 33°45' W 118°11'0 0.0
2019-Aug-12 23:59N 33°45' W 118°11'0 0.0
2019-Aug-12 23:29N 33°45' W 118°11'0 0.0
2019-Aug-12 22:59N 33°45' W 118°11'0 0.0
2019-Aug-12 22:29N 33°45' W 118°11'0 0.0
2019-Aug-12 21:59N 33°45' W 118°11'0 0.0
2019-Aug-12 21:29N 33°45' W 118°11'0 0.0
2019-Aug-12 20:56N 33°45' W 118°11'0 0.0
2019-Aug-12 20:26N 33°45' W 118°11'0 0.0
2019-Aug-12 19:59N 33°45' W 118°11'0 0.0
2019-Aug-12 19:29N 33°45' W 118°11'0 0.0
2019-Aug-12 18:59N 33°45' W 118°11'0 0.0
2019-Aug-12 18:29N 33°45' W 118°11'0 0.0
2019-Aug-12 17:59N 33°45' W 118°11'0 0.0
2019-Aug-12 17:29N 33°45' W 118°11'0 0.0
2019-Aug-12 16:59N 33°45' W 118°11'0 0.0
2019-Aug-12 16:29N 33°45' W 118°11'0 0.0
2019-Aug-12 15:59N 33°45' W 118°11'0 0.0
2019-Aug-12 15:29N 33°45' W 118°11'0 0.0
2019-Aug-12 14:59N 33°45' W 118°11'0 0.0
2019-Aug-12 14:29N 33°45' W 118°11'0 0.0
2019-Aug-12 13:59N 33°45' W 118°11'0 0.0
2019-Aug-12 13:29N 33°45' W 118°11'0 0.0
2019-Aug-12 12:59N 33°45' W 118°11'0 0.2
2019-Aug-12 12:30N 33°45' W 118°11'1 1.8
2019-Aug-12 12:00N 33°44' W 118°11'5 9.6
2019-Aug-12 11:30N 33°39' W 118°10'4 8.7
2019-Aug-12 11:00N 33°35' W 118°09'5 9.7
2019-Aug-12 10:30N 33°30' W 118°07'  
Track history (hours):
 
Tides and Currents Weather Stations Pressure Air Temp Water Temp Dewpoint Dewpoint Depression Visibility Wind Speed Wind Dir Waves Ship Positions

Inspiration

Operator: Carnival Cruise Lines

Last reported at 2019-Aug-22 10:00 UTC. Time now 2019-Aug-22 10:07 UTC.
Position N 31°28' W 118°09'.

Type: Ship. MMSI: 309484000.

Date/timePositionNaut miles runAvg speedWind from/ knotsBaromVisibWave heightAir tempDewpointWater temp
2019-Aug-22 10:00N 31°28' W 118°09'4 7.9
2019-Aug-22 09:31N 31°26' W 118°05'4 8.0
2019-Aug-22 09:01N 31°24' W 118°01'4 8.2
2019-Aug-22 08:30N 31°22' W 117°57'4 8.6
2019-Aug-22 08:00N 31°23' W 117°52'4268.3
2019-Aug-22 08:00N 31°24' W 117°48'1 2.4 320 / 151013.210.8 18.014.820.0
2019-Aug-22 07:30N 31°25' W 117°47'5 9.7
2019-Aug-22 07:00N 31°26' W 117°42'610.6
2019-Aug-22 06:26N 31°29' W 117°35'510.7
2019-Aug-22 06:00N 31°31' W 117°30'510.8
2019-Aug-22 05:31N 31°33' W 117°24'510.7
2019-Aug-22 05:01N 31°35' W 117°19'510.8
2019-Aug-22 04:30N 31°37' W 117°13'611.1
2019-Aug-22 04:00N 31°39' W 117°07'611.3
2019-Aug-22 03:31N 31°42' W 117°01'611.3
2019-Aug-22 03:00N 31°43' W 116°54'611.1
2019-Aug-22 02:30N 31°46' W 116°49'711.0
2019-Aug-22 01:53N 31°49' W 116°41'9 0.7
2019-Aug-21 12:43N 31°54' W 116°50'2 9.8
2019-Aug-21 12:30N 31°55' W 116°52'4 8.6
2019-Aug-21 12:00N 31°56' W 116°57'5 9.6
2019-Aug-21 11:30N 31°58' W 117°02'510.0
2019-Aug-21 11:00N 31°60' W 117°07'5 9.7
2019-Aug-21 10:30N 32°02' W 117°13'5 9.6
2019-Aug-21 10:00N 32°04' W 117°18'5 9.7
2019-Aug-21 09:30N 32°06' W 117°23'5 9.7
2019-Aug-21 09:00N 32°07' W 117°28'5 9.7
2019-Aug-21 08:30N 32°10' W 117°33'5 9.8
2019-Aug-21 08:00N 32°14' W 117°36'5 9.9
2019-Aug-21 07:30N 32°19' W 117°39'510.2
2019-Aug-21 07:01N 32°23' W 117°41'7407.4
2019-Aug-21 07:00N 32°18' W 117°36'1224.4 320 / 101016.210.8 18.014.819.0
2019-Aug-21 06:30N 32°28' W 117°44'510.4
2019-Aug-21 06:01N 32°32' W 117°47'510.4
2019-Aug-21 05:31N 32°37' W 117°50'510.2
2019-Aug-21 05:01N 32°42' W 117°52'510.2
2019-Aug-21 04:31N 32°46' W 117°55'510.1
2019-Aug-21 04:01N 32°51' W 117°58'510.2
2019-Aug-21 03:31N 32°55' W 118°00'5 9.8
2019-Aug-21 03:00N 32°60' W 118°03'5 9.9
2019-Aug-21 02:30N 33°04' W 118°06'510.0
2019-Aug-21 02:00N 33°09' W 118°08'4 8.8
2019-Aug-21 01:31N 33°12' W 118°11'3 6.0
2019-Aug-21 01:00N 33°15' W 118°12'573529.8
2019-Aug-21 01:00N 34°12' W 118°12'54111.9 300 / 101015.210.8 23.020.121.0
2019-Aug-21 00:30N 33°18' W 118°14'3 6.6
2019-Aug-21 00:00N 33°20' W 118°17'2 3.4
2019-Aug-20 23:28N 33°21' W 118°19'0 0.0
2019-Aug-20 22:58N 33°21' W 118°19'0 0.0
2019-Aug-20 22:25N 33°21' W 118°19'0 0.1
2019-Aug-20 21:58N 33°21' W 118°19'0 0.0
2019-Aug-20 21:28N 33°21' W 118°19'0 0.0
2019-Aug-20 20:58N 33°21' W 118°19'0 0.0
2019-Aug-20 20:25N 33°21' W 118°19'0 0.1
2019-Aug-20 19:55N 33°21' W 118°19'0 0.0
2019-Aug-20 19:28N 33°21' W 118°19'0 0.0
2019-Aug-20 18:58N 33°21' W 118°19'0 0.0
2019-Aug-20 18:22N 33°21' W 118°19'0 0.0
2019-Aug-20 17:58N 33°21' W 118°19'0 0.0
2019-Aug-20 17:28N 33°21' W 118°19'0 0.0
2019-Aug-20 17:00N 33°21' W 118°19'0 0.0
2019-Aug-20 16:30N 33°21' W 118°19'0 0.0
2019-Aug-20 16:00N 33°21' W 118°19'0 0.1
2019-Aug-20 15:30N 33°21' W 118°19'0 0.0
2019-Aug-20 14:47N 33°21' W 118°19'0 0.0
2019-Aug-20 14:30N 33°21' W 118°19'0 0.1
2019-Aug-20 14:00N 33°21' W 118°19'3 5.7
2019-Aug-20 13:31N 33°19' W 118°17'4 8.1
2019-Aug-20 13:00N 33°15' W 118°15'4 7.6
2019-Aug-20 12:30N 33°11' W 118°14'4 7.9
2019-Aug-20 12:01N 33°07' W 118°13'7449.8
2019-Aug-20 12:00N 33°00' W 118°12'4 7.6 270 / 201017.210.8 18.014.820.0
2019-Aug-20 11:31N 33°04' W 118°12'4 8.1
2019-Aug-20 11:00N 33°01' W 118°08'4 8.0
2019-Aug-20 10:31N 32°58' W 118°05'4 8.5
2019-Aug-20 10:00N 32°54' W 118°03'4 8.6
2019-Aug-20 09:30N 32°50' W 118°02'5 9.2
2019-Aug-20 09:00N 32°46' W 117°60'4 8.9
2019-Aug-20 08:30N 32°45' W 117°55'4 8.2
2019-Aug-20 08:00N 32°49' W 117°53'187.5
2019-Aug-20 08:00N 32°48' W 117°54'510.0 270 / 101017.210.8 18.014.819.0
2019-Aug-20 07:30N 32°53' W 117°54'4 8.4
2019-Aug-20 07:00N 32°57' W 117°56'4 8.8
2019-Aug-20 06:31N 33°01' W 117°58'5 8.8
2019-Aug-20 05:54N 33°06' W 118°00'3 8.6
2019-Aug-20 05:30N 33°09' W 118°01'4 8.4
2019-Aug-20 05:00N 33°13' W 118°03'4 8.5
2019-Aug-20 04:30N 33°17' W 118°05'5 9.2
2019-Aug-20 04:00N 33°21' W 118°07'5 9.6
2019-Aug-20 03:30N 33°26' W 118°09'5 9.7
2019-Aug-20 03:00N 33°30' W 118°11'5 9.9
2019-Aug-20 02:30N 33°35' W 118°13'5 9.4
2019-Aug-20 02:01N 33°40' W 118°12'4 8.8
2019-Aug-20 01:30N 33°44' W 118°11'1 2.2
2019-Aug-20 00:59N 33°45' W 118°11'0 0.0
2019-Aug-20 00:29N 33°45' W 118°11'0 0.0
2019-Aug-19 23:59N 33°45' W 118°11'0 0.0
2019-Aug-19 23:29N 33°45' W 118°11'0 0.0
2019-Aug-19 22:56N 33°45' W 118°11'0 0.0
2019-Aug-19 22:29N 33°45' W 118°11'0 0.0
2019-Aug-19 21:59N 33°45' W 118°11'0 0.0
2019-Aug-19 21:29N 33°45' W 118°11'0 0.0
2019-Aug-19 20:59N 33°45' W 118°11'0 0.0
2019-Aug-19 20:26N 33°45' W 118°11'0 0.0
2019-Aug-19 19:59N 33°45' W 118°11'0 0.0
2019-Aug-19 19:29N 33°45' W 118°11'0 0.0
2019-Aug-19 18:59N 33°45' W 118°11'0 0.0
2019-Aug-19 18:29N 33°45' W 118°11'0 0.0
2019-Aug-19 17:59N 33°45' W 118°11'0 0.0
2019-Aug-19 17:29N 33°45' W 118°11'0 0.0
2019-Aug-19 16:59N 33°45' W 118°11'0 0.0
2019-Aug-19 16:29N 33°45' W 118°11'0 0.0
2019-Aug-19 15:59N 33°45' W 118°11'0 0.0
2019-Aug-19 15:23N 33°45' W 118°11'0 0.0
2019-Aug-19 14:59N 33°45' W 118°11'0 0.0
2019-Aug-19 14:29N 33°45' W 118°11'0 0.0
2019-Aug-19 13:59N 33°45' W 118°11'0 0.0
2019-Aug-19 13:26N 33°45' W 118°11'0 0.0
2019-Aug-19 12:59N 33°45' W 118°11'0 0.7
2019-Aug-19 12:30N 33°45' W 118°11'2 4.6
2019-Aug-19 12:00N 33°43' W 118°11'4 8.8
2019-Aug-19 11:30N 33°38' W 118°10'5 9.2
2019-Aug-19 11:00N 33°34' W 118°08'5 9.5
2019-Aug-19 10:30N 33°29' W 118°07'5 9.4
2019-Aug-19 09:59N 33°25' W 118°05'611.0
2019-Aug-19 09:29N 33°19' W 118°03'510.6
2019-Aug-19 09:00N 33°15' W 118°01'611.7
2019-Aug-19 08:30N 33°09' W 117°58'611.7
2019-Aug-19 08:00N 33°04' W 117°56'611.2
2019-Aug-19 07:30N 32°58' W 117°54'816.4
2019-Aug-19 07:00N 32°50' W 117°52'5297.5
2019-Aug-19 07:00N 32°54' W 117°48'1225.5 270 / 101017.210.8 18.014.819.0
2019-Aug-19 06:30N 32°42' W 117°49'918.3
2019-Aug-19 06:01N 32°34' W 117°43'917.9
2019-Aug-19 05:30N 32°26' W 117°39'917.6
2019-Aug-19 05:00N 32°18' W 117°34'918.1
2019-Aug-19 04:30N 32°11' W 117°27'917.0
2019-Aug-19 03:59N 32°06' W 117°19'816.5
2019-Aug-19 03:30N 32°01' W 117°11'1415.8
2019-Aug-19 02:36N 31°56' W 116°55'415.3
2019-Aug-19 02:19N 31°54' W 116°51'8 0.6
2019-Aug-18 11:36N 31°50' W 116°59'1 6.6
2019-Aug-18 11:29N 31°50' W 117°00'4 8.0
2019-Aug-18 11:00N 31°49' W 117°05'6 7.9
2019-Aug-18 10:14N 31°44' W 117°08'5 8.3
2019-Aug-18 09:39N 31°39' W 117°09'2 8.2
2019-Aug-18 09:22N 31°37' W 117°10'7 3.1
2019-Aug-18 07:00N 31°30' W 117°06'713.6 320 / 81016.210.8 18.014.820.0
2019-Aug-18 06:27N 31°37' W 117°04'10 7.5
2019-Aug-18 05:04N 31°45' W 117°12'1 7.8
2019-Aug-18 04:59N 31°46' W 117°12'13 8.2
2019-Aug-18 03:26N 31°55' W 117°22'3 8.0
2019-Aug-18 03:00N 31°53' W 117°26'7650.2
2019-Aug-18 03:00N 31°54' W 117°18'813.8 300 / 101015.210.8 18.014.819.0
2019-Aug-18 02:24N 31°48' W 117°25'5 7.6
2019-Aug-18 01:43N 31°43' W 117°23'2 7.4
2019-Aug-18 01:30N 31°42' W 117°23'14 8.3
2019-Aug-17 23:51N 31°28' W 117°21'2 6.7
2019-Aug-17 23:30N 31°27' W 117°23'4 7.1
2019-Aug-17 22:57N 31°29' W 117°26'3 7.0
2019-Aug-17 22:30N 31°32' W 117°29'4 6.9
2019-Aug-17 21:58N 31°34' W 117°32'3 6.9
2019-Aug-17 21:29N 31°36' W 117°35'4 6.9
2019-Aug-17 20:55N 31°39' W 117°39'4 6.7
2019-Aug-17 20:24N 31°41' W 117°42'718.3
2019-Aug-17 20:00N 31°36' W 117°48'542.4 1017.210.8 22.019.019.0
2019-Aug-17 19:52N 31°41' W 117°46'3 7.0
2019-Aug-17 19:30N 31°41' W 117°49'4 7.6
2019-Aug-17 19:00N 31°41' W 117°53'4 7.9
2019-Aug-17 18:30N 31°42' W 117°58'7 7.5
2019-Aug-17 17:30N 31°47' W 118°05'4 7.1
2019-Aug-17 17:00N 31°50' W 118°07'4 7.2
2019-Aug-17 16:30N 31°53' W 118°07'4 7.2
2019-Aug-17 16:00N 31°57' W 118°06'4 7.1
2019-Aug-17 15:30N 32°00' W 118°05'4 7.5
2019-Aug-17 15:00N 32°04' W 118°03'4273.6
2019-Aug-17 15:00N 32°00' W 118°00'715.0 270 / 51017.210.8 18.014.821.0
2019-Aug-17 14:30N 32°07' W 118°01'4 7.7
2019-Aug-17 14:00N 32°11' W 117°60'4 7.4
2019-Aug-17 13:30N 32°14' W 117°58'4 7.2
2019-Aug-17 13:00N 32°18' W 117°56'2129.1
2019-Aug-17 13:00N 32°18' W 117°54'3 6.4 200 / 61016.2 18.014.820.0
2019-Aug-17 12:30N 32°21' W 117°55'4 7.4
2019-Aug-17 12:00N 32°24' W 117°53'4 7.6
2019-Aug-17 11:30N 32°28' W 117°51'5 9.2
2019-Aug-17 11:00N 32°32' W 117°49'5 9.0
2019-Aug-17 10:30N 32°36' W 117°47'4 7.7
2019-Aug-17 10:00N 32°40' W 117°48'4 8.0
2019-Aug-17 09:30N 32°44' W 117°50'4 7.9
2019-Aug-17 09:00N 32°48' W 117°52'4 7.8
2019-Aug-17 08:30N 32°51' W 117°53'4 8.0
2019-Aug-17 08:00N 32°55' W 117°55'4 8.2
2019-Aug-17 07:30N 32°59' W 117°57'4 8.0
2019-Aug-17 07:00N 33°03' W 117°58'9585.1
2019-Aug-17 07:00N 32°54' W 117°54'1327.3 1016.210.8 18.014.820.0
2019-Aug-17 06:30N 33°06' W 118°00'4 7.9
2019-Aug-17 06:00N 33°10' W 118°02'4 7.8
2019-Aug-17 05:30N 33°14' W 118°03'4 7.6
2019-Aug-17 05:01N 33°17' W 118°05'4 7.5
2019-Aug-17 04:30N 33°21' W 118°07'4 7.5
2019-Aug-17 04:00N 33°24' W 118°08'2112.3
2019-Aug-17 04:00N 33°24' W 118°06'5 9.9 270 / 151016.210.8 19.017.519.0
2019-Aug-17 03:30N 33°28' W 118°10'4 8.1
2019-Aug-17 03:00N 33°31' W 118°11'510.0
2019-Aug-17 02:30N 33°36' W 118°13'5 9.4
2019-Aug-17 02:00N 33°41' W 118°12'4 8.0
2019-Aug-17 01:30N 33°45' W 118°11'0 0.7
2019-Aug-17 01:00N 33°45' W 118°11'0 0.0
2019-Aug-17 00:30N 33°45' W 118°11'0 0.0
2019-Aug-17 00:00N 33°45' W 118°11'0 0.0
2019-Aug-16 23:30N 33°45' W 118°11'0 0.0
2019-Aug-16 23:00N 33°45' W 118°11'0 0.0
2019-Aug-16 22:30N 33°45' W 118°11'0 0.0
2019-Aug-16 22:00N 33°45' W 118°11'0 0.0
2019-Aug-16 21:30N 33°45' W 118°11'0 0.0
2019-Aug-16 21:00N 33°45' W 118°11'0 0.0
2019-Aug-16 20:30N 33°45' W 118°11'0 0.0
2019-Aug-16 20:00N 33°45' W 118°11'0 0.0
2019-Aug-16 19:21N 33°45' W 118°11'0 0.0
2019-Aug-16 19:00N 33°45' W 118°11'0 0.0
2019-Aug-16 18:30N 33°45' W 118°11'0 0.0
2019-Aug-16 18:00N 33°45' W 118°11'0 0.0
2019-Aug-16 17:30N 33°45' W 118°11'0 0.0
2019-Aug-16 17:00N 33°45' W 118°11'0 0.0
2019-Aug-16 16:30N 33°45' W 118°11'0 0.0
2019-Aug-16 16:00N 33°45' W 118°11'0 0.0
2019-Aug-16 15:30N 33°45' W 118°11'0 0.0
2019-Aug-16 15:00N 33°45' W 118°11'0 0.0
2019-Aug-16 14:27N 33°45' W 118°11'0 0.0
2019-Aug-16 14:00N 33°45' W 118°11'0 0.0
2019-Aug-16 13:30N 33°45' W 118°11'0 0.0
2019-Aug-16 13:00N 33°45' W 118°11'0 0.7
2019-Aug-16 12:30N 33°45' W 118°11'2 4.4
2019-Aug-16 12:00N 33°43' W 118°11'4 7.3
2019-Aug-16 11:30N 33°39' W 118°10'4 7.8
2019-Aug-16 11:00N 33°35' W 118°09'4 7.7
2019-Aug-16 10:30N 33°32' W 118°08'4 7.2
2019-Aug-16 10:00N 33°28' W 118°06'4 7.3
2019-Aug-16 09:30N 33°25' W 118°05'4 7.5
2019-Aug-16 09:00N 33°21' W 118°04'4 7.5
2019-Aug-16 08:30N 33°18' W 118°02'4 7.2
2019-Aug-16 08:00N 33°14' W 118°01'4 7.8
2019-Aug-16 07:30N 33°11' W 117°59'4 7.5
2019-Aug-16 07:00N 33°07' W 117°58'4 7.4
2019-Aug-16 06:30N 33°04' W 117°56'4 7.2
2019-Aug-16 06:00N 33°00' W 117°54'4 7.6
2019-Aug-16 05:30N 32°57' W 117°53'4 8.4
2019-Aug-16 05:00N 32°53' W 117°52'4 8.0
2019-Aug-16 04:30N 32°49' W 117°50'4 7.4
2019-Aug-16 04:00N 32°46' W 117°48'4 7.5
2019-Aug-16 03:30N 32°42' W 117°47'4 7.9
2019-Aug-16 03:00N 32°38' W 117°45'4 8.0
2019-Aug-16 02:30N 32°34' W 117°44'4 8.1
2019-Aug-16 02:00N 32°30' W 117°43'162.8
2019-Aug-16 02:00N 32°30' W 117°42'3 7.1 320 / 101016.210.8 19.017.521.0
2019-Aug-16 01:30N 32°27' W 117°42'4 7.5
2019-Aug-16 01:00N 32°23' W 117°39'4 7.8
2019-Aug-16 00:30N 32°20' W 117°38'4 7.5
2019-Aug-16 00:00N 32°16' W 117°36'4 7.4
2019-Aug-15 23:30N 32°14' W 117°33'4 7.2
2019-Aug-15 23:00N 32°12' W 117°30'4 7.6
2019-Aug-15 22:30N 32°09' W 117°27'4 7.4
2019-Aug-15 22:00N 32°06' W 117°24'8481.3
2019-Aug-15 22:00N 32°00' W 117°18'4 7.9 320 / 181017.210.8 19.015.920.0
2019-Aug-15 21:30N 32°03' W 117°21'4 7.8
2019-Aug-15 21:00N 32°00' W 117°18'4 7.4
2019-Aug-15 20:30N 31°57' W 117°15'4 7.4
2019-Aug-15 20:00N 31°55' W 117°12'3 6.9
2019-Aug-15 19:30N 31°52' W 117°10'4 7.4
2019-Aug-15 19:00N 31°49' W 117°13'4 7.5
2019-Aug-15 18:30N 31°46' W 117°16'4 7.6
2019-Aug-15 18:00N 31°43' W 117°19'4 7.6
2019-Aug-15 17:30N 31°41' W 117°22'4 7.6
2019-Aug-15 17:00N 31°38' W 117°25'4 7.7
2019-Aug-15 16:30N 31°35' W 117°29'4 7.2
2019-Aug-15 16:00N 31°35' W 117°33'6462.1
2019-Aug-15 16:00N 31°30' W 117°30'918.5 300 / 151018.310.8 18.014.820.0
2019-Aug-15 15:30N 31°37' W 117°37'4 7.3
2019-Aug-15 15:00N 31°38' W 117°41'4 7.5
2019-Aug-15 14:30N 31°40' W 117°45'4 7.5
2019-Aug-15 14:00N 31°41' W 117°49'4 7.6
2019-Aug-15 13:30N 31°42' W 117°53'4 7.5
2019-Aug-15 13:00N 31°42' W 117°58'3190.9
2019-Aug-15 13:00N 31°42' W 117°54'714.0 330 / 201018.310.8 18.014.819.0
2019-Aug-15 12:30N 31°42' W 118°02'4 7.8
2019-Aug-15 12:00N 31°41' W 118°06'4 7.7
2019-Aug-15 11:30N 31°38' W 118°08'4 7.8
2019-Aug-15 11:00N 31°34' W 118°09'4 7.8
2019-Aug-15 10:30N 31°30' W 118°09'4 7.3
2019-Aug-15 10:00N 31°27' W 118°07'4 7.9
2019-Aug-15 09:30N 31°25' W 118°03'4 7.8
2019-Aug-15 09:00N 31°23' W 117°59'4 7.4
2019-Aug-15 08:30N 31°22' W 117°55'4 8.2
2019-Aug-15 08:00N 31°23' W 117°51'7461.1
2019-Aug-15 08:00N 31°24' W 117°42'4 7.3 320 / 251018.210.8 18.014.819.0
2019-Aug-15 07:30N 31°25' W 117°46'510.3
2019-Aug-15 07:00N 31°27' W 117°40'511.1
2019-Aug-15 06:30N 31°29' W 117°34'510.9
2019-Aug-15 06:00N 31°31' W 117°29'511.0
2019-Aug-15 05:30N 31°33' W 117°23'611.3
2019-Aug-15 05:00N 31°36' W 117°17'611.2
2019-Aug-15 04:30N 31°38' W 117°11'611.3
2019-Aug-15 04:00N 31°40' W 117°05'611.4
2019-Aug-15 03:30N 31°42' W 116°58'511.0
2019-Aug-15 03:00N 31°44' W 116°52'3184.2
2019-Aug-15 03:00N 31°42' W 116°54'816.4 340 / 151017.210.8 18.014.819.0
2019-Aug-15 02:30N 31°46' W 116°46'4 0.3
2019-Aug-14 13:22N 31°50' W 116°44'3 8.2
2019-Aug-14 13:00N 31°52' W 116°47'4 8.1
2019-Aug-14 12:30N 31°54' W 116°51'4 8.4
2019-Aug-14 12:00N 31°56' W 116°55'5 9.1
2019-Aug-14 11:30N 31°58' W 117°00'4 8.9
2019-Aug-14 11:01N 31°59' W 117°05'4 8.9
2019-Aug-14 10:30N 32°01' W 117°10'4 8.4
2019-Aug-14 10:00N 32°03' W 117°15'4 7.4
2019-Aug-14 09:31N 32°04' W 117°19'5 9.0
2019-Aug-14 09:00N 32°06' W 117°24'4 8.8
2019-Aug-14 08:30N 32°07' W 117°28'4 8.9
2019-Aug-14 08:00N 32°09' W 117°33'5 9.7
2019-Aug-14 07:30N 32°14' W 117°36'510.0
2019-Aug-14 07:00N 32°18' W 117°38'6440.7
2019-Aug-14 07:00N 32°12' W 117°36'1123.2 1018.210.8 18.014.821.0
2019-Aug-14 06:30N 32°22' W 117°41'5 9.7
2019-Aug-14 06:00N 32°27' W 117°43'5 9.7
2019-Aug-14 05:31N 32°31' W 117°46'5 9.7
2019-Aug-14 05:01N 32°35' W 117°49'5 9.9
2019-Aug-14 04:30N 32°40' W 117°51'5 9.9
2019-Aug-14 04:00N 32°44' W 117°54'5 9.7
2019-Aug-14 03:30N 32°49' W 117°56'5 9.7
2019-Aug-14 03:00N 32°53' W 117°59'7454.8
2019-Aug-14 03:00N 32°48' W 117°54'1123.3 300 / 101017.210.8 18.014.819.0
2019-Aug-14 02:30N 32°57' W 118°02'5 9.9
2019-Aug-14 02:00N 33°02' W 118°04'5 9.7
2019-Aug-14 01:30N 33°06' W 118°07'5 9.5
2019-Aug-14 01:00N 33°10' W 118°09'5 9.6
2019-Aug-14 00:30N 33°15' W 118°12'5 9.5
2019-Aug-14 00:00N 33°18' W 118°15'4 7.8
2019-Aug-13 23:30N 33°21' W 118°19'0 0.1
2019-Aug-13 23:00N 33°21' W 118°19'0 0.0
2019-Aug-13 22:30N 33°21' W 118°19'0 0.0
2019-Aug-13 22:00N 33°21' W 118°19'0 0.0
2019-Aug-13 21:21N 33°21' W 118°19'0 0.0
2019-Aug-13 20:48N 33°21' W 118°19'0 0.0
2019-Aug-13 20:30N 33°21' W 118°19'3 6.1
2019-Aug-13 20:00N 33°18' W 118°18'312.3 1019.310.8 23.020.122.0
2019-Aug-13 19:45N 33°21' W 118°19'0 0.0
2019-Aug-13 19:27N 33°21' W 118°19'0 0.1
2019-Aug-13 18:57N 33°21' W 118°19'0 0.1
2019-Aug-13 18:21N 33°21' W 118°19'0 0.0
2019-Aug-13 18:00N 33°21' W 118°19'0 0.1
2019-Aug-13 17:21N 33°21' W 118°19'0 0.0
2019-Aug-13 16:57N 33°21' W 118°19'0 0.0
2019-Aug-13 16:24N 33°21' W 118°19'0 0.0
2019-Aug-13 15:51N 33°21' W 118°19'0 0.0
2019-Aug-13 15:30N 33°21' W 118°19'0 0.0
2019-Aug-13 15:00N 33°21' W 118°19'0 0.0
2019-Aug-13 14:30N 33°21' W 118°19'0 0.1
2019-Aug-13 14:00N 33°21' W 118°19'3 6.2
2019-Aug-13 13:30N 33°19' W 118°16'4 8.2
2019-Aug-13 13:00N 33°15' W 118°15'4 8.2
2019-Aug-13 12:30N 33°11' W 118°14'4 7.5
2019-Aug-13 12:00N 33°07' W 118°13'4 7.5
2019-Aug-13 11:30N 33°04' W 118°11'4 7.8
2019-Aug-13 11:00N 33°01' W 118°08'4 7.6
2019-Aug-13 10:30N 32°58' W 118°05'4 8.0
2019-Aug-13 10:00N 32°54' W 118°03'4 8.8
2019-Aug-13 09:30N 32°50' W 118°02'5 9.6
2019-Aug-13 09:00N 32°46' W 117°60'5 9.4
2019-Aug-13 08:30N 32°45' W 117°54'4 8.5
2019-Aug-13 08:00N 32°49' W 117°52'5 9.1
2019-Aug-13 07:30N 32°53' W 117°54'5 9.2
2019-Aug-13 07:00N 32°57' W 117°56'9582.9
2019-Aug-13 07:00N 32°48' W 117°54'1428.4 050 / 21018.210.8 18.014.821.0
2019-Aug-13 06:30N 33°01' W 117°58'5 9.3
2019-Aug-13 06:00N 33°06' W 117°60'5 9.3
2019-Aug-13 05:30N 33°10' W 118°02'4 9.0
2019-Aug-13 05:00N 33°14' W 118°04'5 9.0
2019-Aug-13 04:30N 33°18' W 118°06'5 9.1
2019-Aug-13 04:00N 33°23' W 118°08'2122.1
2019-Aug-13 04:00N 33°24' W 118°06'4 8.9 350 / 51017.210.8 18.014.819.0
2019-Aug-13 03:30N 33°27' W 118°10'5 9.4
2019-Aug-13 03:00N 33°32' W 118°12'5 9.5
2019-Aug-13 02:30N 33°36' W 118°13'9 8.8
2019-Aug-13 01:30N 33°45' W 118°11'0 0.8
2019-Aug-13 00:59N 33°45' W 118°11'0 0.0
2019-Aug-13 00:29N 33°45' W 118°11'0 0.0
2019-Aug-12 23:59N 33°45' W 118°11'0 0.0
2019-Aug-12 23:29N 33°45' W 118°11'0 0.0
2019-Aug-12 22:59N 33°45' W 118°11'0 0.0
2019-Aug-12 22:29N 33°45' W 118°11'0 0.0
2019-Aug-12 21:59N 33°45' W 118°11'0 0.0
2019-Aug-12 21:29N 33°45' W 118°11'0 0.0
2019-Aug-12 20:56N 33°45' W 118°11'0 0.0
2019-Aug-12 20:26N 33°45' W 118°11'0 0.0
2019-Aug-12 19:59N 33°45' W 118°11'0 0.0
2019-Aug-12 19:29N 33°45' W 118°11'0 0.0
2019-Aug-12 18:59N 33°45' W 118°11'0 0.0
2019-Aug-12 18:29N 33°45' W 118°11'0 0.0
2019-Aug-12 17:59N 33°45' W 118°11'0 0.0
2019-Aug-12 17:29N 33°45' W 118°11'0 0.0
2019-Aug-12 16:59N 33°45' W 118°11'0 0.0
2019-Aug-12 16:29N 33°45' W 118°11'0 0.0
2019-Aug-12 15:59N 33°45' W 118°11'0 0.0
2019-Aug-12 15:29N 33°45' W 118°11'0 0.0
2019-Aug-12 14:59N 33°45' W 118°11'0 0.0
2019-Aug-12 14:29N 33°45' W 118°11'0 0.0
2019-Aug-12 13:59N 33°45' W 118°11'0 0.0
2019-Aug-12 13:29N 33°45' W 118°11'0 0.0
2019-Aug-12 12:59N 33°45' W 118°11'0 0.2
2019-Aug-12 12:30N 33°45' W 118°11'1 1.8
2019-Aug-12 12:00N 33°44' W 118°11'5 9.6
2019-Aug-12 11:30N 33°39' W 118°10'4 8.7
2019-Aug-12 11:00N 33°35' W 118°09'5 9.7
2019-Aug-12 10:30N 33°30' W 118°07'  

Dump ship's entire track history